Time;durP1;ratioP1;P1;durP2;ratioP2;P2;SDS_P1;SDS_P2;PMS_P1;PMS_P2;Temp;Humidity;BMP_temperature;BMP_pressure;BME280_temperature;BME280_humidity;BME280_pressure;Samples;Min_cycle;Max_cycle;Signal;HPM_P1;HPM_P2
2023/10/21 12:48:28;;;;;;;0.30;0.30;;;;;;;;;;7406549;19;20169;-88
2023/10/21 12:51:50;;;;;;;0.30;0.30;;;;;;;;;;7395772;19;20208;-87
2023/10/21 12:54:36;;;;;;;0.30;0.30;;;;;;;;;;7397736;19;20523;-88
2023/10/21 12:57:11;;;;;;;0.38;0.38;;;;;;;;;;7400691;19;20497;-88
2023/10/21 13:00:32;;;;;;;0.30;0.30;;;;;;;;;;7401048;19;20189;-88
2023/10/21 13:02:59;;;;;;;0.30;0.30;;;;;;;;;;7401948;19;20642;-89
2023/10/21 13:05:25;;;;;;;1.13;1.05;;;;;;;;;;7399249;19;20133;-88
2023/10/21 13:07:52;;;;;;;0.95;0.70;;;;;;;;;;7400205;19;20144;-88
2023/10/21 13:10:19;;;;;;;0.30;0.30;;;;;;;;;;7397124;19;20216;-87
2023/10/21 13:12:46;;;;;;;0.30;0.30;;;;;;;;;;7397776;19;20623;-88
2023/10/21 13:15:13;;;;;;;0.30;0.30;;;;;;;;;;7400038;19;20221;-87
2023/10/21 13:17:43;;;;;;;0.30;0.30;;;;;;;;;;7396505;19;20144;-88
2023/10/21 13:20:17;;;;;;;0.30;0.30;;;;;;;;;;7399165;19;20152;-87
2023/10/21 13:22:44;;;;;;;0.20;0.20;;;;;;;;;;7395067;19;20159;-88
2023/10/21 13:25:13;;;;;;;0.30;0.30;;;;;;;;;;7398257;19;20236;-87
2023/10/21 13:27:48;;;;;;;0.40;0.40;;;;;;;;;;7399418;19;20153;-87
2023/10/21 13:30:14;;;;;;;0.40;0.40;;;;;;;;;;7402060;19;20169;-87
2023/10/21 13:32:43;;;;;;;0.20;0.20;;;;;;;;;;7400706;19;20644;-86
2023/10/21 13:35:11;;;;;;;0.40;0.40;;;;;;;;;;7398080;19;20137;-88
2023/10/21 13:37:45;;;;;;;0.20;0.20;;;;;;;;;;7397760;19;20416;-87
2023/10/21 13:40:16;;;;;;;0.38;0.38;;;;;;;;;;7398059;19;20365;-88
2023/10/21 13:42:45;;;;;;;0.50;0.50;;;;;;;;;;7399218;19;20372;-87
2023/10/21 13:48:51;;;;;;;0.40;0.40;;;;;;;;;;7402545;19;20776;-88
2023/10/21 13:55:51;;;;;;;0.30;0.30;;;;;;;;;;7388796;19;20374;-89
2023/10/21 13:58:22;;;;;;;0.30;0.30;;;;;;;;;;7395564;19;20961;-89
2023/10/21 14:00:50;;;;;;;0.32;0.32;;;;;;;;;;7392361;19;20431;-90
2023/10/21 14:03:22;;;;;;;0.30;0.30;;;;;;;;;;7395183;19;20348;-89
2023/10/21 14:05:50;;;;;;;0.30;0.30;;;;;;;;;;7391565;19;20356;-88
2023/10/21 14:08:18;;;;;;;0.30;0.30;;;;;;;;;;7392530;19;20344;-89
2023/10/21 14:10:48;;;;;;;0.20;0.20;;;;;;;;;;7393282;19;20365;-89
2023/10/21 14:13:20;;;;;;;0.22;0.22;;;;;;;;;;7394331;19;20776;-90
2023/10/21 14:15:49;;;;;;;0.40;0.40;;;;;;;;;;7391289;19;20691;-89
2023/10/21 14:18:16;;;;;;;0.40;0.40;;;;;;;;;;7394128;19;20376;-89
2023/10/21 14:20:47;;;;;;;0.30;0.30;;;;;;;;;;7389375;19;20344;-88
2023/10/21 14:23:14;;;;;;;0.30;0.30;;;;;;;;;;7392414;19;20356;-89
2023/10/21 14:25:44;;;;;;;0.30;0.30;;;;;;;;;;7394477;19;20479;-89
2023/10/21 14:28:16;;;;;;;0.40;0.40;;;;;;;;;;7385187;19;20341;-87
2023/10/21 14:30:48;;;;;;;0.35;0.35;;;;;;;;;;7381923;19;20349;-89
2023/10/21 14:33:17;;;;;;;0.30;0.30;;;;;;;;;;7378334;19;20351;-89
2023/10/21 14:35:49;;;;;;;0.20;0.20;;;;;;;;;;7388409;19;20351;-88
2023/10/21 14:38:15;;;;;;;0.20;0.20;;;;;;;;;;7383488;19;20364;-89
2023/10/21 14:40:43;;;;;;;0.50;0.50;;;;;;;;;;7385881;19;20364;-89
2023/10/21 14:43:11;;;;;;;0.60;0.60;;;;;;;;;;7390247;19;20368;-88
2023/10/21 14:45:41;;;;;;;0.30;0.30;;;;;;;;;;7392326;19;20348;-89
2023/10/21 14:48:09;;;;;;;0.20;0.20;;;;;;;;;;7389436;19;20893;-89
2023/10/21 14:50:43;;;;;;;0.70;0.50;;;;;;;;;;7393170;19;20353;-88
2023/10/21 14:53:16;;;;;;;0.27;0.27;;;;;;;;;;7389449;19;20392;-89
2023/10/21 14:55:52;;;;;;;0.30;0.30;;;;;;;;;;7392381;19;20363;-89
2023/10/21 14:58:25;;;;;;;0.40;0.40;;;;;;;;;;7392706;19;20357;-89
2023/10/21 15:00:54;;;;;;;0.30;0.30;;;;;;;;;;7392671;19;20758;-88
2023/10/21 15:03:21;;;;;;;0.30;0.30;;;;;;;;;;7395012;19;20417;-89
2023/10/21 15:05:51;;;;;;;0.47;0.40;;;;;;;;;;7394879;19;20356;-88
2023/10/21 15:08:23;;;;;;;0.20;0.20;;;;;;;;;;7392019;19;20340;-88
2023/10/21 15:10:51;;;;;;;0.25;0.25;;;;;;;;;;7395554;19;21078;-87
2023/10/21 15:13:19;;;;;;;0.30;0.30;;;;;;;;;;7394942;19;20340;-91
2023/10/21 15:16:20;;;;;;;0.30;0.30;;;;;;;;;;7403500;19;20365;-89
2023/10/21 15:18:50;;;;;;;0.30;0.30;;;;;;;;;;7402259;19;20337;-90
2023/10/21 15:21:20;;;;;;;0.30;0.30;;;;;;;;;;7402620;19;20710;-89
2023/10/21 15:23:48;;;;;;;0.30;0.30;;;;;;;;;;7403883;19;20351;-88
2023/10/21 15:26:16;;;;;;;0.30;0.30;;;;;;;;;;7401835;19;20344;-87
2023/10/21 15:28:44;;;;;;;0.30;0.30;;;;;;;;;;7399158;19;20344;-88
2023/10/21 15:31:11;;;;;;;0.40;0.40;;;;;;;;;;7398430;19;20896;-87
2023/10/21 15:33:39;;;;;;;0.40;0.40;;;;;;;;;;7400596;19;20735;-87
2023/10/21 15:36:54;;;;;;;0.40;0.40;;;;;;;;;;7399966;19;20395;-90
2023/10/21 15:39:24;;;;;;;0.30;0.30;;;;;;;;;;7400533;19;20365;-89
2023/10/21 15:44:46;;;;;;;0.25;0.25;;;;;;;;;;7405284;19;20353;-89
2023/10/21 15:47:14;;;;;;;0.30;0.30;;;;;;;;;;7400976;19;20385;-89
2023/10/21 15:49:43;;;;;;;0.30;0.30;;;;;;;;;;7397675;19;20343;-88
2023/10/21 15:52:11;;;;;;;0.30;0.30;;;;;;;;;;7398439;19;20374;-89
2023/10/21 15:55:17;;;;;;;0.30;0.30;;;;;;;;;;7403327;19;20345;-90
2023/10/21 15:58:34;;;;;;;0.35;0.35;;;;;;;;;;7397101;19;20327;-90
2023/10/21 16:08:36;;;;;;;0.30;0.30;;;;;;;;;;7399960;19;20353;-91
2023/10/21 17:09:51;;;;;;;0.30;0.30;;;;;;;;;;7399485;19;20361;-89
2023/10/21 17:12:19;;;;;;;0.45;0.45;;;;;;;;;;7389850;19;20707;-89
2023/10/21 17:14:45;;;;;;;0.35;0.35;;;;;;;;;;7393723;19;20359;-91
2023/10/21 17:17:12;;;;;;;0.20;0.20;;;;;;;;;;7395835;19;20644;-91
2023/10/21 17:19:39;;;;;;;0.30;0.30;;;;;;;;;;7392125;19;20373;-91
2023/10/21 17:22:05;;;;;;;0.38;0.38;;;;;;;;;;7395620;19;20345;-91
2023/10/21 17:24:32;;;;;;;0.32;0.32;;;;;;;;;;7389125;19;20412;-91
2023/10/21 17:26:59;;;;;;;0.20;0.20;;;;;;;;;;7390788;19;20345;-91
2023/10/21 17:29:26;;;;;;;0.30;0.30;;;;;;;;;;7397719;19;20887;-89
2023/10/21 17:31:52;;;;;;;0.40;0.40;;;;;;;;;;7399620;19;20778;-89
2023/10/21 17:34:19;;;;;;;1.00;0.32;;;;;;;;;;7393614;19;20345;-90
2023/10/21 17:36:46;;;;;;;0.40;0.40;;;;;;;;;;7388746;19;20345;-90
2023/10/21 17:39:13;;;;;;;0.30;0.30;;;;;;;;;;7389127;19;20357;-89
2023/10/21 17:41:40;;;;;;;0.30;0.30;;;;;;;;;;7389299;19;20876;-91
2023/10/21 17:44:08;;;;;;;0.60;0.60;;;;;;;;;;7391968;19;20361;-91
2023/10/21 17:46:36;;;;;;;0.40;0.40;;;;;;;;;;7392252;19;20357;-89
2023/10/21 17:49:04;;;;;;;0.30;0.30;;;;;;;;;;7393270;19;20337;-89
2023/10/21 17:51:32;;;;;;;0.60;0.60;;;;;;;;;;7392391;19;20876;-89
2023/10/21 17:53:59;;;;;;;0.70;0.70;;;;;;;;;;7391521;19;21504;-89
2023/10/21 18:07:41;;;;;;;0.20;0.20;;;;;;;;;;7389314;19;21026;-93
2023/10/21 18:13:59;;;;;;;0.32;0.32;;;;;;;;;;7394095;19;20331;-90
2023/10/21 19:34:50;;;;;;;0.38;0.38;;;;;;;;;;7403366;19;20369;-88
2023/10/21 19:37:26;;;;;;;0.30;0.30;;;;;;;;;;7399325;19;20377;-90
2023/10/21 19:39:53;;;;;;;0.28;0.28;;;;;;;;;;7396249;19;20389;-89
2023/10/21 19:42:21;;;;;;;0.60;0.60;;;;;;;;;;7396002;19;20344;-89
2023/10/21 19:44:54;;;;;;;0.30;0.30;;;;;;;;;;7399354;19;20349;-88
2023/10/21 19:47:54;;;;;;;1.00;1.00;;;;;;;;;;7397217;19;20341;-89
2023/10/21 20:45:57;;;;;;;;;;;;;;;;;;;;;
2023/10/21 21:07:57;;;;;;;0.30;0.30;;;;;;;;;;7404429;19;20357;-88
2023/10/21 21:20:05;;;;;;;0.30;0.30;;;;;;;;;;7402011;19;20382;-88
2023/10/21 21:22:35;;;;;;;0.30;0.30;;;;;;;;;;7403110;19;20880;-88
2023/10/21 21:25:01;;;;;;;0.20;0.20;;;;;;;;;;7404548;19;20345;-91
2023/10/21 21:27:29;;;;;;;0.30;0.30;;;;;;;;;;7400285;19;20891;-89
2023/10/21 21:29:56;;;;;;;0.20;0.20;;;;;;;;;;7401847;19;20367;-89
2023/10/21 21:32:25;;;;;;;0.50;0.40;;;;;;;;;;7398044;19;20348;-88
2023/10/21 21:34:52;;;;;;;0.38;0.38;;;;;;;;;;7405549;19;20345;-88
2023/10/21 21:37:18;;;;;;;0.20;0.20;;;;;;;;;;7399968;19;20340;-88
2023/10/21 21:39:48;;;;;;;0.30;0.30;;;;;;;;;;7405568;19;20352;-89
2023/10/21 21:42:15;;;;;;;0.30;0.30;;;;;;;;;;7401479;19;20344;-88
2023/10/21 21:44:53;;;;;;;0.38;0.38;;;;;;;;;;7402346;19;20691;-89
2023/10/21 22:01:43;;;;;;;0.40;0.40;;;;;;;;;;7401670;19;21274;-88
2023/10/21 22:20:12;;;;;;;;;;;;;;;;;;;;;
2023/10/21 22:26:16;;;;;;;0.30;0.30;;;;;;;;;;7399780;19;20358;-87
2023/10/21 22:32:54;;;;;;;0.40;0.40;;;;;;;;;;7402822;19;20355;-87
2023/10/21 22:35:49;;;;;;;0.30;0.30;;;;;;;;;;7399535;19;20356;-87
2023/10/21 22:38:23;;;;;;;0.30;0.30;;;;;;;;;;7400361;19;20861;-88
2023/10/21 22:55:59;;;;;;;0.30;0.30;;;;;;;;;;7397984;19;20320;-88
2023/10/21 23:28:00;;;;;;;0.20;0.20;;;;;;;;;;7429575;19;20459;-87
2023/10/21 23:39:29;;;;;;;0.30;0.30;;;;;;;;;;7434914;19;20336;-87
2023/10/21 23:41:57;;;;;;;0.23;0.23;;;;;;;;;;7431546;19;20347;-87
2023/10/21 23:44:41;;;;;;;0.70;0.30;;;;;;;;;;7433185;19;20394;-87
2023/10/21 23:48:14;;;;;;;;;;;;;;;;;;;;;
2023/10/21 23:59:07;;;;;;;;;;;;;;;;;;;;;
